This is the latest recevied weather packets stored in our database for station/object IU3NMQ-10. If no packets are shown the sender has not sent any weather packets the latest 10 day(s).
| Time | Temp. | Humidity | Pressure | Rain* | Wind** | Luminosity | Snow |
|---|---|---|---|---|---|---|---|
| 1787919451 | 33.89° C | 57% | 1011.3 hPa | - | - | - | - |
| 1787918551 | 33.89° C | 58% | 1011.5 hPa | - | - | - | - |
| 1787917651 | 34.44° C | 57% | 1011.5 hPa | - | - | - | - |
| 1787916751 | 33.89° C | 58% | 1011.7 hPa | - | - | - | - |
| 1787915851 | 33.89° C | 59% | 1011.8 hPa | - | - | - | - |
| 1787914950 | 33.33° C | 59% | 1011.9 hPa | - | - | - | - |
| 1787914048 | 33.33° C | 60% | 1011.9 hPa | - | - | - | - |
| 1787913148 | 32.78° C | 64% | 1012.2 hPa | - | - | - | - |
| 1787912248 | 31.67° C | 65% | 1012 hPa | - | - | - | - |
| 1787911348 | 32.22° C | 64% | 1012.2 hPa | - | - | - | - |
| 1787910448 | 32.22° C | 64% | 1012.3 hPa | - | - | - | - |
| 1787909548 | 31.67° C | 66% | 1012.2 hPa | - | - | - | - |
| 1787908647 | 31.67° C | 68% | 1012.6 hPa | - | - | - | - |
| 1787907747 | 31.11° C | 69% | 1012.9 hPa | - | - | - | - |
| 1787907118 | 30.56° C | 71% | 1013 hPa | - | - | - | - |
| 1787906880 | 30.56° C | 71% | 1013 hPa | - | - | - | - |
| 1787906847 | 30.56° C | 71% | 1013 hPa | - | - | - | - |
| 1787905980 | 30° C | 72% | 1013.1 hPa | - | - | - | - |
| 1787905947 | 30° C | 72% | 1013.1 hPa | - | - | - | - |
| 1787905047 | 29.44° C | 75% | 1013.1 hPa | - | - | - | - |
| 1787904600 | 28.89° C | 76% | 1013.3 hPa | - | - | - | - |
| 1787904147 | 28.89° C | 76% | 1013.3 hPa | - | - | - | - |
| 1787903432 | 28.33° C | 78% | 1013.3 hPa | - | - | - | - |
| 1787903376 | 28.33° C | 78% | 1013.3 hPa | - | - | - | - |
| 1787903247 | 28.33° C | 78% | 1013.3 hPa | - | - | - | - |
* Rain since midnight (hover to see other rain measurements)
** Current wind speed in m/s (hover to see current wind gust speed)